createdAt,value
2018-04-28T00:00:56.982Z,4.00
2018-04-28T00:01:56.960Z,4.00
2018-04-28T00:02:56.941Z,4.00
2018-04-28T00:03:56.927Z,4.00
2018-04-28T00:04:56.902Z,4.00
2018-04-28T00:05:56.881Z,4.00
2018-04-28T00:06:56.862Z,4.00
2018-04-28T00:07:56.877Z,4.00
2018-04-28T00:08:57.573Z,4.00
2018-04-28T00:09:56.801Z,4.00
2018-04-28T00:10:56.781Z,4.00
2018-04-28T00:11:56.761Z,4.00
2018-04-28T00:12:56.741Z,4.00
2018-04-28T00:13:56.720Z,4.00
2018-04-28T00:14:56.700Z,4.00
2018-04-28T00:15:56.681Z,4.00
2018-04-28T00:16:56.661Z,4.00
2018-04-28T00:17:56.644Z,4.00
2018-04-28T00:18:56.631Z,4.00
2018-04-28T00:19:56.603Z,4.00
2018-04-28T00:20:56.582Z,4.00
2018-04-28T00:21:56.560Z,4.00
2018-04-28T00:22:56.540Z,4.00
2018-04-28T00:23:56.521Z,4.00
2018-04-28T00:24:56.503Z,4.00
2018-04-28T00:25:56.480Z,4.00
2018-04-28T00:26:56.460Z,4.00
2018-04-28T00:27:56.439Z,4.00
2018-04-28T00:28:56.419Z,4.00
2018-04-28T00:29:56.400Z,4.00
2018-04-28T00:30:56.379Z,4.00
2018-04-28T00:31:56.362Z,4.00
2018-04-28T00:32:56.338Z,4.00
2018-04-28T00:33:56.318Z,4.00
2018-04-28T00:34:56.298Z,4.00
2018-04-28T00:35:56.277Z,4.00
2018-04-28T00:36:56.258Z,4.00
2018-04-28T00:37:56.237Z,4.00
2018-04-28T00:38:56.217Z,4.00
2018-04-28T00:39:56.197Z,4.00
2018-04-28T00:40:56.181Z,4.00
2018-04-28T00:41:56.156Z,4.00
2018-04-28T00:42:56.135Z,4.00
2018-04-28T00:43:56.116Z,4.00
2018-04-28T00:44:56.095Z,4.00
2018-04-28T00:45:56.074Z,4.00
2018-04-28T00:46:56.054Z,4.00
2018-04-28T00:47:56.035Z,4.00
2018-04-28T00:48:56.015Z,4.00
2018-04-28T00:49:55.993Z,4.00
2018-04-28T00:50:55.974Z,4.00
2018-04-28T00:51:55.954Z,4.00
2018-04-28T00:52:55.935Z,4.00
2018-04-28T00:53:55.910Z,4.00
2018-04-28T00:54:55.891Z,4.00
2018-04-28T00:55:55.872Z,4.00
2018-04-28T00:56:55.852Z,4.00
2018-04-28T00:57:55.930Z,4.00
2018-04-28T00:58:55.810Z,4.00
2018-04-28T00:59:55.790Z,4.00
2018-04-28T01:00:55.771Z,4.00
2018-04-28T01:01:55.749Z,4.00
2018-04-28T01:02:55.727Z,4.00
2018-04-28T01:03:55.708Z,4.00
2018-04-28T01:04:55.686Z,4.00
2018-04-28T01:05:55.668Z,4.00
2018-04-28T01:06:55.649Z,4.00
2018-04-28T01:07:55.629Z,4.00
2018-04-28T01:08:55.605Z,4.00
2018-04-28T01:09:55.589Z,4.00
2018-04-28T01:10:55.562Z,4.00
2018-04-28T01:11:55.542Z,4.00
2018-04-28T01:12:55.527Z,4.00
2018-04-28T01:13:55.504Z,4.00
2018-04-28T01:14:55.481Z,4.00
2018-04-28T01:15:55.460Z,4.00
2018-04-28T01:16:55.439Z,4.00
2018-04-28T01:17:55.418Z,4.00
2018-04-28T01:18:55.396Z,4.00
2018-04-28T01:19:55.375Z,4.00
2018-04-28T01:20:55.355Z,4.00
2018-04-28T01:21:55.334Z,4.00
2018-04-28T01:22:55.325Z,4.00
2018-04-28T01:23:55.293Z,4.00
2018-04-28T01:24:57.524Z,4.00
2018-04-28T01:25:55.252Z,4.00
2018-04-28T01:26:55.231Z,4.00
2018-04-28T01:27:55.210Z,4.00
2018-04-28T01:28:55.191Z,4.00
2018-04-28T01:29:55.175Z,4.00
2018-04-28T01:30:55.146Z,4.00
2018-04-28T01:31:55.131Z,4.00
2018-04-28T01:32:55.106Z,4.00
2018-04-28T01:33:55.083Z,4.00
2018-04-28T01:34:55.064Z,4.00
2018-04-28T01:35:55.044Z,4.00
2018-04-28T01:36:55.022Z,4.00
2018-04-28T01:37:55.001Z,4.00
2018-04-28T01:38:54.980Z,4.00
2018-04-28T01:39:54.959Z,4.00
2018-04-28T01:40:54.938Z,4.00
2018-04-28T01:41:54.916Z,4.00
2018-04-28T01:42:54.896Z,4.00
2018-04-28T01:43:54.875Z,4.00
2018-04-28T01:44:54.854Z,4.00
2018-04-28T01:45:54.832Z,4.00
2018-04-28T01:46:54.810Z,4.00
2018-04-28T01:47:54.803Z,4.00
2018-04-28T01:48:54.768Z,4.00
2018-04-28T01:49:54.747Z,4.00
2018-04-28T01:50:54.727Z,4.00
2018-04-28T01:51:54.705Z,4.00
2018-04-28T01:52:54.684Z,4.00
2018-04-28T01:53:54.663Z,4.00
2018-04-28T01:54:54.642Z,4.00
2018-04-28T01:55:54.620Z,4.00
2018-04-28T01:56:54.601Z,4.00
2018-04-28T01:57:54.577Z,4.00
2018-04-28T01:58:54.556Z,4.00
2018-04-28T01:59:54.537Z,4.00
2018-04-28T02:00:54.514Z,4.00
2018-04-28T02:01:54.494Z,4.00
2018-04-28T02:02:54.473Z,4.00
2018-04-28T02:03:54.451Z,4.00
2018-04-28T02:04:54.435Z,4.00
2018-04-28T02:05:54.409Z,4.00
2018-04-28T02:06:54.387Z,4.00
2018-04-28T02:07:54.367Z,4.00
2018-04-28T02:08:54.345Z,4.00
2018-04-28T02:09:54.324Z,4.00
2018-04-28T02:10:54.304Z,4.00
2018-04-28T02:11:54.282Z,4.00
2018-04-28T02:12:54.261Z,4.00
2018-04-28T02:13:54.237Z,4.00
2018-04-28T02:14:54.217Z,4.00
2018-04-28T02:15:54.196Z,4.00
2018-04-28T02:16:54.176Z,4.00
2018-04-28T02:17:54.154Z,4.00
2018-04-28T02:18:54.132Z,4.00
2018-04-28T02:19:54.111Z,4.00
2018-04-28T02:20:54.090Z,4.00
2018-04-28T02:21:54.067Z,4.00
2018-04-28T02:22:54.048Z,4.00
2018-04-28T02:23:54.026Z,4.00
2018-04-28T02:24:54.006Z,4.00
2018-04-28T02:25:53.983Z,4.00
2018-04-28T02:26:53.963Z,4.00
2018-04-28T02:27:53.942Z,4.00
2018-04-28T02:28:53.921Z,4.00
2018-04-28T02:29:53.899Z,4.00
2018-04-28T02:30:53.878Z,4.00
2018-04-28T02:31:53.857Z,4.00
2018-04-28T02:32:54.590Z,4.00
2018-04-28T02:33:53.814Z,4.00
2018-04-28T02:34:53.792Z,4.00
2018-04-28T02:35:53.774Z,4.00
2018-04-28T02:36:53.751Z,4.00
2018-04-28T02:37:53.738Z,4.00
2018-04-28T02:38:53.707Z,4.00
2018-04-28T02:39:53.754Z,4.00
2018-04-28T02:40:53.664Z,4.00
2018-04-28T02:41:53.643Z,4.00
2018-04-28T02:42:53.622Z,4.00
2018-04-28T02:43:53.600Z,4.00
2018-04-28T02:44:53.580Z,4.00
2018-04-28T02:45:53.556Z,4.00
2018-04-28T02:46:53.534Z,4.00
2018-04-28T02:47:53.514Z,4.00
2018-04-28T02:48:53.491Z,4.00
2018-04-28T02:49:53.470Z,4.00
2018-04-28T02:50:53.450Z,4.00
2018-04-28T02:51:53.427Z,4.00
2018-04-28T02:52:53.410Z,4.00
2018-04-28T02:53:53.384Z,4.00
2018-04-28T02:54:53.372Z,4.00
2018-04-28T02:55:53.344Z,4.00
2018-04-28T02:56:53.320Z,4.00
2018-04-28T02:57:53.301Z,4.00
2018-04-28T02:58:53.275Z,4.00
2018-04-28T02:59:53.259Z,4.00
2018-04-28T03:00:53.240Z,4.00
2018-04-28T03:01:53.211Z,4.00
2018-04-28T03:02:53.189Z,4.00
2018-04-28T03:03:53.170Z,4.00
2018-04-28T03:04:53.148Z,4.00
2018-04-28T03:05:53.128Z,4.00
2018-04-28T03:06:53.104Z,4.00
2018-04-28T03:07:53.083Z,4.00
2018-04-28T03:08:53.062Z,4.00
2018-04-28T03:09:53.038Z,4.00
2018-04-28T03:10:53.019Z,4.00
2018-04-28T03:11:52.996Z,4.00
2018-04-28T03:12:52.976Z,4.00
2018-04-28T03:13:52.953Z,4.00
2018-04-28T03:14:52.935Z,4.00
2018-04-28T03:15:52.909Z,4.00
2018-04-28T03:16:52.887Z,4.00
2018-04-28T03:17:52.866Z,4.00
2018-04-28T03:18:52.845Z,4.00
2018-04-28T03:19:52.825Z,4.00
2018-04-28T03:20:52.803Z,4.00
2018-04-28T03:21:52.780Z,4.00
2018-04-28T03:22:52.759Z,4.00
2018-04-28T03:23:52.736Z,0.00
2018-04-28T03:24:52.716Z,4.00
2018-04-28T03:25:52.693Z,4.00
2018-04-28T03:26:52.672Z,4.00
2018-04-28T03:27:52.650Z,4.00
2018-04-28T03:28:52.631Z,4.00
2018-04-28T03:29:52.607Z,4.00
2018-04-28T03:30:52.588Z,4.00
2018-04-28T03:31:52.569Z,4.00
2018-04-28T03:32:52.544Z,4.00
2018-04-28T03:33:52.521Z,4.00
2018-04-28T03:34:52.501Z,4.00
2018-04-28T03:35:52.482Z,4.00
2018-04-28T03:36:52.458Z,4.00
2018-04-28T03:37:52.437Z,0.00
2018-04-28T03:38:52.417Z,0.00
2018-04-28T03:39:52.394Z,0.00
2018-04-28T03:40:53.875Z,0.00
2018-04-28T03:41:52.351Z,0.00
2018-04-28T03:42:52.331Z,4.00
2018-04-28T03:43:52.309Z,4.00
2018-04-28T03:44:52.288Z,4.00
2018-04-28T03:45:52.266Z,4.00
2018-04-28T03:46:52.245Z,4.00
2018-04-28T03:47:52.223Z,4.00
2018-04-28T03:48:52.203Z,4.00
2018-04-28T03:49:52.181Z,8.00
2018-04-28T03:50:52.161Z,4.00
2018-04-28T03:51:52.138Z,8.00
2018-04-28T03:52:52.119Z,4.00
2018-04-28T03:53:52.095Z,8.00
2018-04-28T03:54:52.073Z,8.00
2018-04-28T03:55:52.053Z,8.00
2018-04-28T03:56:52.034Z,8.00
2018-04-28T03:57:52.011Z,12.00
2018-04-28T03:58:51.989Z,12.00
2018-04-28T03:59:51.969Z,12.00
2018-04-28T04:00:51.948Z,12.00
2018-04-28T04:01:51.927Z,16.00
2018-04-28T04:02:51.903Z,20.00
2018-04-28T04:03:51.883Z,20.00
2018-04-28T04:04:51.863Z,28.00
2018-04-28T04:05:51.839Z,28.00
2018-04-28T04:06:51.818Z,36.00
2018-04-28T04:07:51.797Z,44.00
2018-04-28T04:08:54.779Z,48.00
2018-04-28T04:09:51.754Z,56.00
2018-04-28T04:10:51.734Z,60.00
2018-04-28T04:11:51.712Z,68.00
2018-04-28T04:12:51.692Z,76.00
2018-04-28T04:13:51.670Z,84.00
2018-04-28T04:14:51.648Z,88.00
2018-04-28T04:15:51.629Z,96.00
2018-04-28T04:16:51.610Z,104.00
2018-04-28T04:17:51.586Z,108.00
2018-04-28T04:18:51.564Z,120.00
2018-04-28T04:19:51.544Z,124.00
2018-04-28T04:20:51.522Z,132.00
2018-04-28T04:21:51.500Z,136.00
2018-04-28T04:22:51.482Z,144.00
2018-04-28T04:23:51.459Z,148.00
2018-04-28T04:24:51.438Z,156.00
2018-04-28T04:25:51.417Z,160.00
2018-04-28T04:26:51.395Z,172.00
2018-04-28T04:27:51.375Z,176.00
2018-04-28T04:28:51.353Z,180.00
2018-04-28T04:29:51.335Z,184.00
2018-04-28T04:30:51.312Z,192.00
2018-04-28T04:31:51.298Z,204.00
2018-04-28T04:32:51.273Z,216.00
2018-04-28T04:33:51.248Z,232.00
2018-04-28T04:34:51.227Z,252.00
2018-04-28T04:35:51.207Z,264.00
2018-04-28T04:36:51.935Z,280.00
2018-04-28T04:37:51.163Z,296.00
2018-04-28T04:38:51.144Z,288.00
2018-04-28T04:39:51.122Z,292.00
2018-04-28T04:40:51.101Z,304.00
2018-04-28T04:41:51.081Z,324.00
2018-04-28T04:42:51.060Z,348.00
2018-04-28T04:43:51.039Z,368.00
2018-04-28T04:44:51.017Z,388.00
2018-04-28T04:45:50.997Z,420.00
2018-04-28T04:46:50.976Z,440.00
2018-04-28T04:47:50.956Z,468.00
2018-04-28T04:48:50.934Z,488.00
2018-04-28T04:49:50.915Z,496.00
2018-04-28T04:50:50.892Z,508.00
2018-04-28T04:51:50.873Z,516.00
2018-04-28T04:52:50.851Z,528.00
2018-04-28T04:53:50.830Z,544.00
2018-04-28T04:54:50.813Z,560.00
2018-04-28T04:55:50.792Z,580.00
2018-04-28T04:56:50.767Z,612.00
2018-04-28T04:57:50.745Z,632.00
2018-04-28T04:58:50.724Z,656.00
2018-04-28T04:59:50.705Z,676.00
2018-04-28T05:00:50.683Z,704.00
2018-04-28T05:01:50.663Z,728.00
2018-04-28T05:02:50.641Z,764.00
2018-04-28T05:03:52.872Z,796.00
2018-04-28T05:04:50.602Z,824.00
2018-04-28T05:05:50.584Z,860.00
2018-04-28T05:06:50.558Z,900.00
2018-04-28T05:07:50.538Z,948.00
2018-04-28T05:08:50.517Z,988.00
2018-04-28T05:09:50.496Z,1024.00
2018-04-28T05:10:50.478Z,1048.00
2018-04-28T05:11:50.455Z,1076.00
2018-04-28T05:12:50.434Z,1080.00
2018-04-28T05:13:50.412Z,1156.00
2018-04-28T05:14:50.391Z,1180.00
2018-04-28T05:15:50.369Z,1212.00
2018-04-28T05:16:50.351Z,1248.00
2018-04-28T05:17:50.327Z,1248.00
2018-04-28T05:18:50.308Z,1280.00
2018-04-28T05:19:50.287Z,1292.00
2018-04-28T05:20:50.266Z,1336.00
2018-04-28T05:21:50.245Z,1360.00
2018-04-28T05:22:50.224Z,1380.00
2018-04-28T05:23:50.203Z,1428.00
2018-04-28T05:24:50.183Z,1492.00
2018-04-28T05:25:50.162Z,1532.00
2018-04-28T05:26:50.142Z,1556.00
2018-04-28T05:27:50.122Z,1580.00
2018-04-28T05:28:50.101Z,1616.00
2018-04-28T05:29:50.079Z,1684.00
2018-04-28T05:30:50.059Z,1700.00
2018-04-28T05:31:50.038Z,1720.00
2018-04-28T05:32:50.018Z,1724.00
2018-04-28T05:33:49.997Z,1720.00
2018-04-28T05:34:49.977Z,1740.00
2018-04-28T05:35:49.955Z,1788.00
2018-04-28T05:36:49.936Z,1856.00
2018-04-28T05:37:49.913Z,1908.00
2018-04-28T05:38:49.895Z,1884.00
2018-04-28T05:39:49.874Z,1848.00
2018-04-28T05:40:49.854Z,1836.00
2018-04-28T05:41:49.836Z,1832.00
2018-04-28T05:42:49.811Z,1860.00
2018-04-28T05:43:49.792Z,1884.00
2018-04-28T05:44:49.771Z,1940.00
2018-04-28T05:45:49.750Z,1944.00
2018-04-28T05:46:49.730Z,1964.00
2018-04-28T05:47:49.710Z,2036.00
2018-04-28T05:48:49.689Z,2128.00
2018-04-28T05:49:49.668Z,2216.00
2018-04-28T05:50:49.650Z,2280.00
2018-04-28T05:51:49.629Z,2312.00
2018-04-28T05:52:49.609Z,2324.00
2018-04-28T05:53:49.587Z,2324.00
2018-04-28T05:54:49.567Z,2312.00
2018-04-28T05:55:49.547Z,2328.00
2018-04-28T05:56:49.527Z,2300.00
2018-04-28T05:57:49.550Z,2272.00
2018-04-28T05:58:49.487Z,2236.00
2018-04-28T05:59:49.466Z,2208.00
2018-04-28T06:00:49.447Z,2180.00
2018-04-28T06:01:49.437Z,2148.00
2018-04-28T06:02:49.405Z,2112.00
2018-04-28T06:03:49.386Z,2072.00
2018-04-28T06:04:49.366Z,2088.00
2018-04-28T06:05:49.345Z,2140.00
2018-04-28T06:06:49.325Z,2232.00
2018-04-28T06:07:49.306Z,2344.00
2018-04-28T06:08:49.287Z,2436.00
2018-04-28T06:09:49.265Z,2508.00
2018-04-28T06:10:49.245Z,2576.00
2018-04-28T06:11:49.226Z,2648.00
2018-04-28T06:12:49.205Z,2732.00
2018-04-28T06:13:49.184Z,2828.00
2018-04-28T06:14:49.165Z,2880.00
2018-04-28T06:15:49.144Z,2992.00
2018-04-28T06:16:49.125Z,3104.00
2018-04-28T06:17:49.108Z,3244.00
2018-04-28T06:18:49.084Z,3216.00
2018-04-28T06:19:49.064Z,3176.00
2018-04-28T06:20:49.045Z,3188.00
2018-04-28T06:21:49.024Z,3180.00
2018-04-28T06:22:49.084Z,3192.00
2018-04-28T06:23:48.984Z,3276.00
2018-04-28T06:24:49.719Z,3316.00
2018-04-28T06:25:48.944Z,3488.00
2018-04-28T06:26:48.924Z,3516.00
2018-04-28T06:27:48.905Z,3440.00
2018-04-28T06:28:48.884Z,3552.00
2018-04-28T06:29:48.863Z,3724.00
2018-04-28T06:30:48.844Z,3776.00
2018-04-28T06:31:48.824Z,3764.00
2018-04-28T06:32:48.805Z,3840.00
2018-04-28T06:33:48.784Z,3848.00
2018-04-28T06:34:48.764Z,3908.00
2018-04-28T06:35:48.748Z,3968.00
2018-04-28T06:36:48.725Z,4064.00
2018-04-28T06:37:48.705Z,4220.00
2018-04-28T06:38:48.690Z,4176.00
2018-04-28T06:39:48.667Z,4256.00
2018-04-28T06:40:48.652Z,4284.00
2018-04-28T06:41:48.626Z,4232.00
2018-04-28T06:42:48.606Z,4256.00
2018-04-28T06:43:48.587Z,4212.00
2018-04-28T06:44:48.568Z,4360.00
2018-04-28T06:45:49.298Z,4364.00
2018-04-28T06:46:48.529Z,4376.00
2018-04-28T06:47:48.510Z,4416.00
2018-04-28T06:48:48.491Z,4424.00
2018-04-28T06:49:48.470Z,4492.00
2018-04-28T06:50:48.451Z,4568.00
2018-04-28T06:51:48.431Z,4544.00
2018-04-28T06:52:48.413Z,4576.00
2018-04-28T06:53:48.392Z,4692.00
2018-04-28T06:54:48.373Z,4752.00
2018-04-28T06:55:48.356Z,4724.00
2018-04-28T06:56:48.334Z,4760.00
2018-04-28T06:57:48.317Z,4836.00
2018-04-28T06:58:48.294Z,4800.00
2018-04-28T06:59:48.275Z,4804.00
2018-04-28T07:00:48.257Z,4820.00
2018-04-28T07:01:48.237Z,4712.00
2018-04-28T07:02:48.218Z,4704.00
2018-04-28T07:03:48.198Z,4744.00
2018-04-28T07:04:48.180Z,4792.00
2018-04-28T07:05:48.160Z,4720.00
2018-04-28T07:06:48.142Z,4792.00
2018-04-28T07:07:48.122Z,4844.00
2018-04-28T07:08:48.102Z,4828.00
2018-04-28T07:09:48.083Z,4976.00
2018-04-28T07:10:48.111Z,4996.00
2018-04-28T07:11:48.048Z,5040.00
2018-04-28T07:12:48.025Z,5036.00
2018-04-28T07:13:48.005Z,5280.00
2018-04-28T07:14:47.986Z,5520.00
2018-04-28T07:15:47.968Z,5524.00
2018-04-28T07:16:47.953Z,5672.00
2018-04-28T07:17:47.928Z,5864.00
2018-04-28T07:18:47.910Z,5944.00
2018-04-28T07:19:47.890Z,5964.00
2018-04-28T07:20:47.872Z,6000.00
2018-04-28T07:21:47.856Z,6112.00
2018-04-28T07:22:47.833Z,6120.00
2018-04-28T07:23:47.815Z,6152.00
2018-04-28T07:24:47.796Z,6164.00
2018-04-28T07:25:47.775Z,6144.00
2018-04-28T07:26:47.758Z,6228.00
2018-04-28T07:27:47.739Z,6192.00
2018-04-28T07:28:47.718Z,6220.00
2018-04-28T07:29:47.774Z,6404.00
2018-04-28T07:30:47.678Z,6604.00
2018-04-28T07:31:47.660Z,6688.00
2018-04-28T07:32:47.639Z,6688.00
2018-04-28T07:33:47.624Z,6844.00
2018-04-28T07:34:47.601Z,6904.00
2018-04-28T07:35:47.582Z,6960.00
2018-04-28T07:36:47.565Z,7040.00
2018-04-28T07:37:47.545Z,7068.00
2018-04-28T07:38:47.526Z,7100.00
2018-04-28T07:39:47.512Z,7080.00
2018-04-28T07:40:47.489Z,7092.00
2018-04-28T07:41:47.468Z,6968.00
2018-04-28T07:42:47.449Z,6692.00
2018-04-28T07:43:47.435Z,6832.00
2018-04-28T07:44:47.411Z,6548.00
2018-04-28T07:45:47.391Z,6616.00
2018-04-28T07:46:47.373Z,6612.00
2018-04-28T07:47:47.355Z,6544.00
2018-04-28T07:48:47.337Z,6624.00
2018-04-28T07:49:47.318Z,6632.00
2018-04-28T07:50:47.301Z,6516.00
2018-04-28T07:51:47.284Z,6528.00
2018-04-28T07:52:47.261Z,6592.00
2018-04-28T07:53:47.246Z,6456.00
2018-04-28T07:54:47.974Z,6524.00
2018-04-28T07:55:47.203Z,6404.00
2018-04-28T07:56:47.187Z,6220.00
2018-04-28T07:57:47.166Z,6192.00
2018-04-28T07:58:47.146Z,6148.00
2018-04-28T07:59:47.129Z,6104.00
2018-04-28T08:00:47.110Z,6108.00
2018-04-28T08:01:47.093Z,6136.00
2018-04-28T08:02:47.072Z,6072.00
2018-04-28T08:03:47.053Z,6096.00
2018-04-28T08:04:47.036Z,6084.00
2018-04-28T08:05:47.016Z,6180.00
2018-04-28T08:06:46.996Z,6144.00
2018-04-28T08:07:46.977Z,6252.00
2018-04-28T08:08:46.958Z,6240.00
2018-04-28T08:09:46.940Z,6228.00
2018-04-28T08:10:46.920Z,6072.00
2018-04-28T08:11:46.904Z,6304.00
2018-04-28T08:12:46.883Z,6280.00
2018-04-28T08:13:46.864Z,6244.00
2018-04-28T08:14:46.846Z,6228.00
2018-04-28T08:15:46.827Z,6160.00
2018-04-28T08:16:46.809Z,6192.00
2018-04-28T08:17:46.789Z,6160.00
2018-04-28T08:18:46.772Z,6132.00
2018-04-28T08:19:46.752Z,6052.00
2018-04-28T08:20:46.762Z,5936.00
2018-04-28T08:21:46.713Z,5936.00
2018-04-28T08:22:46.698Z,6004.00
2018-04-28T08:23:46.682Z,5980.00
2018-04-28T08:24:46.658Z,5944.00
2018-04-28T08:25:46.640Z,5912.00
2018-04-28T08:26:46.621Z,6004.00
2018-04-28T08:27:46.604Z,5996.00
2018-04-28T08:28:46.585Z,6056.00
2018-04-28T08:29:46.566Z,6088.00
2018-04-28T08:30:46.547Z,6168.00
2018-04-28T08:31:46.531Z,6196.00
2018-04-28T08:32:46.510Z,6224.00
2018-04-28T08:33:46.491Z,6224.00
2018-04-28T08:34:46.472Z,6336.00
2018-04-28T08:35:46.455Z,6312.00
2018-04-28T08:36:46.482Z,6180.00
2018-04-28T08:37:46.418Z,6264.00
2018-04-28T08:38:46.398Z,6188.00
2018-04-28T08:39:46.381Z,6236.00
2018-04-28T08:40:46.364Z,6372.00
2018-04-28T08:41:46.344Z,6284.00
2018-04-28T08:42:46.331Z,6308.00
2018-04-28T08:43:46.307Z,6340.00
2018-04-28T08:44:46.290Z,6368.00
2018-04-28T08:45:46.271Z,6404.00
2018-04-28T08:46:46.254Z,6448.00
2018-04-28T08:47:46.234Z,6456.00
2018-04-28T08:48:46.217Z,6404.00
2018-04-28T08:49:46.199Z,6368.00
2018-04-28T08:50:46.182Z,6576.00
2018-04-28T08:51:46.163Z,6616.00
2018-04-28T08:52:46.144Z,6608.00
2018-04-28T08:53:46.125Z,6792.00
2018-04-28T08:54:46.108Z,6888.00
2018-04-28T08:55:46.090Z,7000.00
2018-04-28T08:56:46.077Z,7184.00
2018-04-28T08:57:46.061Z,7072.00
2018-04-28T08:58:46.036Z,7268.00
2018-04-28T08:59:46.018Z,7288.00
2018-04-28T09:00:46.001Z,7288.00
2018-04-28T09:01:45.983Z,7204.00
2018-04-28T09:02:45.964Z,7144.00
2018-04-28T09:03:46.046Z,7272.00
2018-04-28T09:04:45.929Z,7236.00
2018-04-28T09:05:45.910Z,7288.00
2018-04-28T09:06:45.892Z,7412.00
2018-04-28T09:07:45.873Z,7472.00
2018-04-28T09:08:45.856Z,7332.00
2018-04-28T09:09:45.837Z,7616.00
2018-04-28T09:10:45.821Z,7800.00
2018-04-28T09:11:45.803Z,7924.00
2018-04-28T09:12:45.786Z,8104.00
2018-04-28T09:13:45.768Z,8156.00
2018-04-28T09:14:45.751Z,8476.00
2018-04-28T09:15:45.733Z,8744.00
2018-04-28T09:16:45.716Z,8956.00
2018-04-28T09:17:45.698Z,9144.00
2018-04-28T09:18:45.681Z,9396.00
2018-04-28T09:19:45.663Z,9624.00
2018-04-28T09:20:45.646Z,9784.00
2018-04-28T09:21:45.628Z,9868.00
2018-04-28T09:22:45.610Z,9984.00
2018-04-28T09:23:45.593Z,9896.00
2018-04-28T09:24:45.576Z,9956.00
2018-04-28T09:25:45.557Z,10016.00
2018-04-28T09:26:45.542Z,10028.00
2018-04-28T09:27:45.524Z,10148.00
2018-04-28T09:28:45.508Z,10348.00
2018-04-28T09:29:45.491Z,10464.00
2018-04-28T09:30:45.474Z,10472.00
2018-04-28T09:31:45.457Z,10508.00
2018-04-28T09:32:45.441Z,10448.00
2018-04-28T09:33:45.422Z,10424.00
2018-04-28T09:34:45.410Z,10388.00
2018-04-28T09:35:45.390Z,10388.00
2018-04-28T09:36:45.374Z,10480.00
2018-04-28T09:37:45.355Z,10472.00
2018-04-28T09:38:45.339Z,10552.00
2018-04-28T09:39:45.323Z,10544.00
2018-04-28T09:40:45.308Z,10592.00
2018-04-28T09:41:45.290Z,10660.00
2018-04-28T09:42:45.276Z,10704.00
2018-04-28T09:43:48.261Z,10676.00
2018-04-28T09:44:45.241Z,10672.00
2018-04-28T09:45:45.235Z,10824.00
2018-04-28T09:46:45.209Z,10856.00
2018-04-28T09:47:45.194Z,11024.00
2018-04-28T09:48:45.177Z,11036.00
2018-04-28T09:49:50.415Z,11028.00
2018-04-28T09:50:45.144Z,11052.00
2018-04-28T09:51:45.132Z,11020.00
2018-04-28T09:52:45.114Z,10956.00
2018-04-28T09:53:45.096Z,10964.00
2018-04-28T09:54:45.081Z,11044.00
2018-04-28T09:55:45.064Z,11044.00
2018-04-28T09:56:45.050Z,11040.00
2018-04-28T09:57:45.036Z,11092.00
2018-04-28T09:58:45.018Z,11152.00
2018-04-28T09:59:45.003Z,11104.00
2018-04-28T10:00:44.989Z,11112.00
2018-04-28T10:01:44.970Z,11072.00
2018-04-28T10:02:44.954Z,11028.00
2018-04-28T10:03:44.940Z,11024.00
2018-04-28T10:04:44.922Z,10992.00
2018-04-28T10:05:44.906Z,10772.00
2018-04-28T10:06:44.892Z,10476.00
2018-04-28T10:07:44.876Z,10164.00
2018-04-28T10:08:44.860Z,9908.00
2018-04-28T10:09:44.844Z,9816.00
2018-04-28T10:10:44.829Z,9684.00
2018-04-28T10:11:44.814Z,9632.00
2018-04-28T10:12:44.879Z,9532.00
2018-04-28T10:13:44.783Z,9396.00
2018-04-28T10:14:44.767Z,9388.00
2018-04-28T10:15:44.751Z,9316.00
2018-04-28T10:16:44.737Z,9352.00
2018-04-28T10:17:44.720Z,9240.00
2018-04-28T10:18:44.708Z,9284.00
2018-04-28T10:19:44.691Z,9228.00
2018-04-28T10:20:44.674Z,9308.00
2018-04-28T10:21:46.159Z,9332.00
2018-04-28T10:22:44.643Z,9284.00
2018-04-28T10:23:44.628Z,9320.00
2018-04-28T10:24:44.614Z,9368.00
2018-04-28T10:25:44.601Z,9416.00
2018-04-28T10:26:44.584Z,9484.00
2018-04-28T10:27:44.567Z,9648.00
2018-04-28T10:28:44.554Z,9752.00
2018-04-28T10:29:44.537Z,9872.00
2018-04-28T10:30:44.523Z,10096.00
2018-04-28T10:31:44.505Z,10168.00
2018-04-28T10:32:44.491Z,10212.00
2018-04-28T10:33:44.475Z,10140.00
2018-04-28T10:34:44.460Z,10140.00
2018-04-28T10:35:44.445Z,10140.00
2018-04-28T10:36:44.430Z,9848.00
2018-04-28T10:37:44.413Z,9660.00
2018-04-28T10:38:44.397Z,9368.00
2018-04-28T10:39:44.386Z,9100.00
2018-04-28T10:40:44.370Z,8892.00
2018-04-28T10:41:44.351Z,8700.00
2018-04-28T10:42:44.336Z,8556.00
2018-04-28T10:43:44.321Z,8432.00
2018-04-28T10:44:44.306Z,8368.00
2018-04-28T10:45:44.289Z,8344.00
2018-04-28T10:46:44.273Z,8400.00
2018-04-28T10:47:44.263Z,8420.00
2018-04-28T10:48:44.244Z,8588.00
2018-04-28T10:49:44.228Z,8844.00
2018-04-28T10:50:44.212Z,9084.00
2018-04-28T10:51:44.199Z,9224.00
2018-04-28T10:52:44.181Z,9420.00
2018-04-28T10:53:44.253Z,9664.00
2018-04-28T10:54:44.148Z,10060.00
2018-04-28T10:55:44.133Z,10352.00
2018-04-28T10:56:44.118Z,10608.00
2018-04-28T10:57:44.103Z,10576.00
2018-04-28T10:58:44.086Z,10924.00
2018-04-28T10:59:44.071Z,11164.00
2018-04-28T11:00:44.056Z,11336.00
2018-04-28T11:01:44.040Z,11184.00
2018-04-28T11:02:44.026Z,11224.00
2018-04-28T11:03:44.011Z,11228.00
2018-04-28T11:04:43.999Z,11104.00
2018-04-28T11:05:43.978Z,11108.00
2018-04-28T11:06:43.965Z,11116.00
2018-04-28T11:07:43.950Z,11172.00
2018-04-28T11:08:43.935Z,11124.00
2018-04-28T11:09:43.918Z,11000.00
2018-04-28T11:10:44.655Z,11088.00
2018-04-28T11:11:43.888Z,11176.00
2018-04-28T11:12:43.874Z,10984.00
2018-04-28T11:13:43.858Z,10800.00
2018-04-28T11:14:43.845Z,10604.00
2018-04-28T11:15:43.829Z,10544.00
2018-04-28T11:16:43.814Z,10440.00
2018-04-28T11:17:43.800Z,10424.00
2018-04-28T11:18:43.783Z,10444.00
2018-04-28T11:19:43.846Z,10352.00
2018-04-28T11:20:43.756Z,10384.00
2018-04-28T11:21:43.738Z,10328.00
2018-04-28T11:22:43.725Z,10332.00
2018-04-28T11:23:43.711Z,10304.00
2018-04-28T11:24:43.695Z,10344.00
2018-04-28T11:25:43.817Z,10336.00
2018-04-28T11:26:44.415Z,10280.00
2018-04-28T11:27:43.652Z,10124.00
2018-04-28T11:28:43.637Z,9984.00
2018-04-28T11:29:43.620Z,9876.00
2018-04-28T11:30:43.606Z,9744.00
2018-04-28T11:31:43.591Z,9548.00
2018-04-28T11:32:43.578Z,9332.00
2018-04-28T11:33:43.561Z,9012.00
2018-04-28T11:34:43.548Z,8608.00
2018-04-28T11:35:43.531Z,8152.00
2018-04-28T11:36:43.517Z,7824.00
2018-04-28T11:37:43.503Z,7504.00
2018-04-28T11:38:43.486Z,7040.00
2018-04-28T11:39:43.474Z,6744.00
2018-04-28T11:40:43.457Z,6524.00
2018-04-28T11:41:43.443Z,6184.00
2018-04-28T11:42:43.430Z,5668.00
2018-04-28T11:43:43.441Z,5616.00
2018-04-28T11:44:43.399Z,5396.00
2018-04-28T11:45:43.382Z,5144.00
2018-04-28T11:46:43.366Z,4944.00
2018-04-28T11:47:43.352Z,4772.00
2018-04-28T11:48:44.086Z,4628.00
2018-04-28T11:49:43.320Z,4508.00
2018-04-28T11:50:43.305Z,4416.00
2018-04-28T11:51:43.290Z,4328.00
2018-04-28T11:52:43.275Z,4296.00
2018-04-28T11:53:43.260Z,4284.00
2018-04-28T11:54:43.243Z,4244.00
2018-04-28T11:55:43.229Z,4156.00
2018-04-28T11:56:43.213Z,4160.00
2018-04-28T11:57:43.197Z,4300.00
2018-04-28T11:58:43.182Z,4256.00
2018-04-28T11:59:43.166Z,4212.00
2018-04-28T12:00:43.152Z,4260.00
2018-04-28T12:01:43.134Z,4064.00
2018-04-28T12:02:43.131Z,3964.00
2018-04-28T12:03:43.104Z,4104.00
2018-04-28T12:04:43.090Z,4080.00
2018-04-28T12:05:43.091Z,4032.00
2018-04-28T12:06:43.057Z,4040.00
2018-04-28T12:07:43.041Z,4052.00
2018-04-28T12:08:43.032Z,4032.00
2018-04-28T12:09:48.263Z,3988.00
2018-04-28T12:10:43.006Z,4000.00
2018-04-28T12:11:42.977Z,3996.00
2018-04-28T12:12:42.966Z,3984.00
2018-04-28T12:13:42.945Z,3980.00
2018-04-28T12:14:42.929Z,3952.00
2018-04-28T12:15:42.913Z,3948.00
2018-04-28T12:16:42.899Z,3948.00
2018-04-28T12:17:42.880Z,3936.00
2018-04-28T12:18:42.865Z,3912.00
2018-04-28T12:19:42.849Z,3920.00
2018-04-28T12:20:42.833Z,3912.00
2018-04-28T12:21:42.817Z,3900.00
2018-04-28T12:22:42.804Z,3956.00
2018-04-28T12:23:42.786Z,4016.00
2018-04-28T12:24:42.771Z,4128.00
2018-04-28T12:25:42.755Z,4200.00
2018-04-28T12:26:42.738Z,4328.00
2018-04-28T12:27:42.723Z,4408.00